sensor_id;sensor_type;location;lat;lon;timestamp;pressure;altitude;pressure_sealevel;temperature;humidity
56420;BME280;42323;52.170;7.538;2023-03-01T00:01:18;63019.00;;;-145.28;100.00
56420;BME280;42323;52.170;7.538;2023-03-01T00:03:47;63019.00;;;-145.28;100.00
56420;BME280;42323;52.170;7.538;2023-03-01T00:06:17;63019.00;;;-145.28;100.00
56420;BME280;42323;52.170;7.538;2023-03-01T00:08:44;63019.00;;;-145.28;100.00
56420;BME280;42323;52.170;7.538;2023-03-01T00:11:18;63019.00;;;-145.28;100.00
56420;BME280;42323;52.170;7.538;2023-03-01T00:13:47;63019.00;;;-145.28;100.00
56420;BME280;42323;52.170;7.538;2023-03-01T00:16:21;63019.00;;;-145.28;100.00
56420;BME280;42323;52.170;7.538;2023-03-01T00:18:48;63019.00;;;-145.28;100.00
56420;BME280;42323;52.170;7.538;2023-03-01T00:21:17;63019.00;;;-145.28;100.00
56420;BME280;42323;52.170;7.538;2023-03-01T00:23:44;63019.00;;;-145.28;100.00
56420;BME280;42323;52.170;7.538;2023-03-01T00:26:12;63019.00;;;-145.28;100.00
56420;BME280;42323;52.170;7.538;2023-03-01T00:28:42;63019.00;;;-145.28;100.00
56420;BME280;42323;52.170;7.538;2023-03-01T00:31:13;63019.00;;;-145.28;100.00
56420;BME280;42323;52.170;7.538;2023-03-01T00:33:43;63019.00;;;-145.28;100.00
56420;BME280;42323;52.170;7.538;2023-03-01T00:36:12;63019.00;;;-145.28;100.00
56420;BME280;42323;52.170;7.538;2023-03-01T00:38:41;63019.00;;;-145.28;100.00
56420;BME280;42323;52.170;7.538;2023-03-01T00:41:10;63019.00;;;-145.28;100.00
56420;BME280;42323;52.170;7.538;2023-03-01T00:43:37;63019.00;;;-145.28;100.00
56420;BME280;42323;52.170;7.538;2023-03-01T00:46:06;63019.00;;;-145.28;100.00
56420;BME280;42323;52.170;7.538;2023-03-01T00:48:36;63019.00;;;-145.28;100.00
56420;BME280;42323;52.170;7.538;2023-03-01T00:51:14;63019.00;;;-145.28;100.00
56420;BME280;42323;52.170;7.538;2023-03-01T00:53:42;63019.00;;;-145.28;100.00
56420;BME280;42323;52.170;7.538;2023-03-01T00:56:13;63019.00;;;-145.28;100.00
56420;BME280;42323;52.170;7.538;2023-03-01T00:58:40;63019.00;;;-145.28;100.00
56420;BME280;42323;52.170;7.538;2023-03-01T01:03:49;63019.00;;;-145.28;100.00
56420;BME280;42323;52.170;7.538;2023-03-01T01:06:21;63019.00;;;-145.28;100.00
56420;BME280;42323;52.170;7.538;2023-03-01T01:08:48;63019.00;;;-145.28;100.00
56420;BME280;42323;52.170;7.538;2023-03-01T01:11:15;63019.00;;;-145.28;100.00
56420;BME280;42323;52.170;7.538;2023-03-01T01:13:44;63019.00;;;-145.28;100.00
56420;BME280;42323;52.170;7.538;2023-03-01T01:16:13;63019.00;;;-145.28;100.00
56420;BME280;42323;52.170;7.538;2023-03-01T01:18:40;63019.00;;;-145.28;100.00
56420;BME280;42323;52.170;7.538;2023-03-01T01:21:09;63019.00;;;-145.28;100.00
56420;BME280;42323;52.170;7.538;2023-03-01T01:23:38;63019.00;;;-145.28;100.00
56420;BME280;42323;52.170;7.538;2023-03-01T01:26:06;63019.00;;;-145.28;100.00
56420;BME280;42323;52.170;7.538;2023-03-01T01:28:36;63019.00;;;-145.28;100.00
56420;BME280;42323;52.170;7.538;2023-03-01T01:31:03;63019.00;;;-145.28;100.00
56420;BME280;42323;52.170;7.538;2023-03-01T01:33:30;63019.00;;;-145.28;100.00
56420;BME280;42323;52.170;7.538;2023-03-01T01:35:58;63019.00;;;-145.28;100.00
56420;BME280;42323;52.170;7.538;2023-03-01T01:38:25;63019.00;;;-145.28;100.00
56420;BME280;42323;52.170;7.538;2023-03-01T01:40:52;63019.00;;;-145.28;100.00
56420;BME280;42323;52.170;7.538;2023-03-01T01:43:36;63019.00;;;-145.28;100.00
56420;BME280;42323;52.170;7.538;2023-03-01T01:48:45;63019.00;;;-145.28;100.00
56420;BME280;42323;52.170;7.538;2023-03-01T01:51:18;63019.00;;;-145.28;100.00
56420;BME280;42323;52.170;7.538;2023-03-01T01:53:52;63019.00;;;-145.28;100.00
56420;BME280;42323;52.170;7.538;2023-03-01T01:56:20;63019.00;;;-145.28;100.00
56420;BME280;42323;52.170;7.538;2023-03-01T01:58:49;63019.00;;;-145.28;100.00
56420;BME280;42323;52.170;7.538;2023-03-01T02:01:16;63019.00;;;-145.28;100.00
56420;BME280;42323;52.170;7.538;2023-03-01T02:03:44;63019.00;;;-145.28;100.00
56420;BME280;42323;52.170;7.538;2023-03-01T02:06:30;63019.00;;;-145.28;100.00
56420;BME280;42323;52.170;7.538;2023-03-01T02:09:08;63019.00;;;-145.28;100.00
56420;BME280;42323;52.170;7.538;2023-03-01T02:11:37;63019.00;;;-145.28;100.00
56420;BME280;42323;52.170;7.538;2023-03-01T02:14:04;63019.00;;;-145.28;100.00
56420;BME280;42323;52.170;7.538;2023-03-01T02:16:31;63019.00;;;-145.28;100.00
56420;BME280;42323;52.170;7.538;2023-03-01T02:18:59;63019.00;;;-145.28;100.00
56420;BME280;42323;52.170;7.538;2023-03-01T02:21:56;63019.00;;;-145.28;100.00
56420;BME280;42323;52.170;7.538;2023-03-01T02:24:35;63019.00;;;-145.28;100.00
56420;BME280;42323;52.170;7.538;2023-03-01T02:27:06;63019.00;;;-145.28;100.00
56420;BME280;42323;52.170;7.538;2023-03-01T02:29:33;63019.00;;;-145.28;100.00
56420;BME280;42323;52.170;7.538;2023-03-01T02:32:03;63019.00;;;-145.28;100.00
56420;BME280;42323;52.170;7.538;2023-03-01T02:34:31;63019.00;;;-145.28;100.00
56420;BME280;42323;52.170;7.538;2023-03-01T02:37:05;63019.00;;;-145.28;100.00
56420;BME280;42323;52.170;7.538;2023-03-01T02:39:38;63019.00;;;-145.28;100.00
56420;BME280;42323;52.170;7.538;2023-03-01T02:42:15;63019.00;;;-145.28;100.00
56420;BME280;42323;52.170;7.538;2023-03-01T02:44:43;63019.00;;;-145.28;100.00
56420;BME280;42323;52.170;7.538;2023-03-01T02:47:12;63019.00;;;-145.28;100.00
56420;BME280;42323;52.170;7.538;2023-03-01T02:49:41;63019.00;;;-145.28;100.00
56420;BME280;42323;52.170;7.538;2023-03-01T02:57:36;63019.00;;;-145.28;100.00
56420;BME280;42323;52.170;7.538;2023-03-01T03:00:13;63019.00;;;-145.28;100.00
56420;BME280;42323;52.170;7.538;2023-03-01T03:02:48;63019.00;;;-145.28;100.00
56420;BME280;42323;52.170;7.538;2023-03-01T03:05:19;63019.00;;;-145.28;100.00
56420;BME280;42323;52.170;7.538;2023-03-01T03:07:50;63019.00;;;-145.28;100.00
56420;BME280;42323;52.170;7.538;2023-03-01T03:10:30;63019.00;;;-145.28;100.00
56420;BME280;42323;52.170;7.538;2023-03-01T06:42:48;102556.16;;;-4.84;89.90
56420;BME280;42323;52.170;7.538;2023-03-01T06:45:18;102567.94;;;-4.77;89.90
56420;BME280;42323;52.170;7.538;2023-03-01T06:47:45;102557.81;;;-4.82;89.59
56420;BME280;42323;52.170;7.538;2023-03-01T06:50:14;102569.59;;;-4.73;89.92
56420;BME280;42323;52.170;7.538;2023-03-01T06:52:41;102571.25;;;-4.72;89.69
56420;BME280;42323;52.170;7.538;2023-03-01T06:55:08;102577.13;;;-4.67;89.05
56420;BME280;42323;52.170;7.538;2023-03-01T06:57:35;102582.22;;;-4.65;89.30
56420;BME280;42323;52.170;7.538;2023-03-01T07:00:03;102577.09;;;-4.65;89.57
56420;BME280;42323;52.170;7.538;2023-03-01T07:02:30;102576.09;;;-4.58;89.70
56420;BME280;42323;52.170;7.538;2023-03-01T07:04:57;102558.34;;;-4.64;89.59
56420;BME280;42323;52.170;7.538;2023-03-01T07:07:23;102536.41;;;-4.76;89.72
56420;BME280;42323;52.170;7.538;2023-03-01T07:09:50;102566.50;;;-4.47;89.88
56420;BME280;42323;52.170;7.538;2023-03-01T07:12:16;102546.91;;;-4.48;90.01
56420;BME280;42323;52.170;7.538;2023-03-01T07:14:44;102573.69;;;-4.22;89.36
56420;BME280;42323;52.170;7.538;2023-03-01T07:17:10;102570.25;;;-4.21;89.97
56420;BME280;42323;52.170;7.538;2023-03-01T07:19:37;102564.06;;;-4.13;89.31
56420;BME280;42323;52.170;7.538;2023-03-01T07:22:04;102565.53;;;-4.01;89.91
56420;BME280;42323;52.170;7.538;2023-03-01T07:24:30;102563.66;;;-3.93;90.11
56420;BME280;42323;52.170;7.538;2023-03-01T07:26:57;102559.94;;;-3.81;89.93
56420;BME280;42323;52.170;7.538;2023-03-01T07:29:23;102554.75;;;-3.78;89.56
56420;BME280;42323;52.170;7.538;2023-03-01T07:31:50;102557.06;;;-3.67;89.49
56420;BME280;42323;52.170;7.538;2023-03-01T07:34:16;102563.69;;;-3.59;88.96
56420;BME280;42323;52.170;7.538;2023-03-01T07:36:43;102557.53;;;-3.51;88.60
56420;BME280;42323;52.170;7.538;2023-03-01T07:39:11;102559.09;;;-3.46;88.71
56420;BME280;42323;52.170;7.538;2023-03-01T07:41:38;102553.78;;;-3.37;88.72
56420;BME280;42323;52.170;7.538;2023-03-01T07:44:04;102566.25;;;-3.24;88.26
56420;BME280;42323;52.170;7.538;2023-03-01T07:46:32;102560.03;;;-3.16;87.74
56420;BME280;42323;52.170;7.538;2023-03-01T07:48:59;102560.69;;;-3.08;87.84
56420;BME280;42323;52.170;7.538;2023-03-01T07:51:26;102563.94;;;-3.01;87.51
56420;BME280;42323;52.170;7.538;2023-03-01T07:53:52;102563.63;;;-2.90;87.47
56420;BME280;42323;52.170;7.538;2023-03-01T07:56:19;102567.66;;;-2.80;86.65
56420;BME280;42323;52.170;7.538;2023-03-01T07:58:47;102566.56;;;-2.71;86.17
56420;BME280;42323;52.170;7.538;2023-03-01T08:01:18;102554.56;;;-2.71;86.47
56420;BME280;42323;52.170;7.538;2023-03-01T08:03:47;102567.78;;;-2.54;86.06
56420;BME280;42323;52.170;7.538;2023-03-01T08:06:15;102564.00;;;-2.42;85.69
56420;BME280;42323;52.170;7.538;2023-03-01T08:08:42;102566.25;;;-2.31;84.68
56420;BME280;42323;52.170;7.538;2023-03-01T08:11:13;102568.50;;;-2.20;83.86
56420;BME280;42323;52.170;7.538;2023-03-01T08:13:40;102559.81;;;-2.15;84.17
56420;BME280;42323;52.170;7.538;2023-03-01T08:16:12;102546.69;;;-2.06;82.85
56420;BME280;42323;52.170;7.538;2023-03-01T08:18:39;102550.47;;;-1.89;82.56
56420;BME280;42323;52.170;7.538;2023-03-01T08:21:08;102537.50;;;-1.86;81.58
56420;BME280;42323;52.170;7.538;2023-03-01T08:23:36;102536.44;;;-1.79;81.30
56420;BME280;42323;52.170;7.538;2023-03-01T08:26:07;102537.66;;;-1.64;80.70
56420;BME280;42323;52.170;7.538;2023-03-01T08:28:35;102541.47;;;-1.49;80.47
56420;BME280;42323;52.170;7.538;2023-03-01T08:31:01;102549.53;;;-1.35;80.32
56420;BME280;42323;52.170;7.538;2023-03-01T08:33:28;102538.91;;;-1.24;79.41
56420;BME280;42323;52.170;7.538;2023-03-01T08:36:05;102540.78;;;-1.05;78.68
56420;BME280;42323;52.170;7.538;2023-03-01T08:38:34;102508.19;;;-1.04;78.35
56420;BME280;42323;52.170;7.538;2023-03-01T08:41:03;102535.69;;;-0.81;78.00
56420;BME280;42323;52.170;7.538;2023-03-01T08:43:29;102522.69;;;-0.78;77.60
56420;BME280;42323;52.170;7.538;2023-03-01T08:45:56;102530.63;;;-0.61;77.02
56420;BME280;42323;52.170;7.538;2023-03-01T08:48:23;102528.41;;;-0.46;76.74
56420;BME280;42323;52.170;7.538;2023-03-01T08:50:50;102511.69;;;-0.36;75.52
56420;BME280;42323;52.170;7.538;2023-03-01T08:53:17;102531.53;;;-0.16;74.40
56420;BME280;42323;52.170;7.538;2023-03-01T08:55:43;102522.63;;;-0.08;73.60
56420;BME280;42323;52.170;7.538;2023-03-01T08:58:10;102528.59;;;0.15;72.13
56420;BME280;42323;52.170;7.538;2023-03-01T09:00:36;102528.56;;;0.37;70.43
56420;BME280;42323;52.170;7.538;2023-03-01T09:03:06;102516.31;;;0.42;69.77
56420;BME280;42323;52.170;7.538;2023-03-01T09:05:33;102532.00;;;0.58;69.32
56420;BME280;42323;52.170;7.538;2023-03-01T09:08:00;102523.88;;;0.67;69.04
56420;BME280;42323;52.170;7.538;2023-03-01T09:10:26;102521.72;;;0.77;68.05
56420;BME280;42323;52.170;7.538;2023-03-01T09:12:53;102518.31;;;0.96;66.28
56420;BME280;42323;52.170;7.538;2023-03-01T09:15:19;102519.31;;;1.13;65.56
56420;BME280;42323;52.170;7.538;2023-03-01T09:17:46;102511.78;;;1.27;64.55
56420;BME280;42323;52.170;7.538;2023-03-01T09:20:13;102522.06;;;1.47;64.20
56420;BME280;42323;52.170;7.538;2023-03-01T09:22:39;102515.41;;;1.61;63.20
56420;BME280;42323;52.170;7.538;2023-03-01T09:25:06;102514.06;;;1.71;62.42
56420;BME280;42323;52.170;7.538;2023-03-01T09:27:32;102505.59;;;1.86;61.64
56420;BME280;42323;52.170;7.538;2023-03-01T09:29:59;102497.41;;;1.95;60.53
56420;BME280;42323;52.170;7.538;2023-03-01T09:32:25;102508.69;;;2.12;61.22
56420;BME280;42323;52.170;7.538;2023-03-01T09:34:52;102506.53;;;2.20;61.04
56420;BME280;42323;52.170;7.538;2023-03-01T09:37:31;102509.34;;;2.33;60.20
56420;BME280;42323;52.170;7.538;2023-03-01T09:39:58;102494.53;;;2.36;59.10
56420;BME280;42323;52.170;7.538;2023-03-01T09:42:25;102503.19;;;2.53;59.23
56420;BME280;42323;52.170;7.538;2023-03-01T09:45:01;102493.91;;;2.66;58.74
56420;BME280;42323;52.170;7.538;2023-03-01T09:47:33;102490.09;;;2.73;56.87
56420;BME280;42323;52.170;7.538;2023-03-01T09:50:06;102488.59;;;2.85;56.91
56420;BME280;42323;52.170;7.538;2023-03-01T09:52:40;102497.00;;;3.06;55.17
56420;BME280;42323;52.170;7.538;2023-03-01T09:55:14;102482.25;;;3.23;54.04
56420;BME280;42323;52.170;7.538;2023-03-01T09:57:48;102486.38;;;3.59;53.92
56420;BME280;42323;52.170;7.538;2023-03-01T10:00:30;102475.41;;;4.00;53.53
56420;BME280;42323;52.170;7.538;2023-03-01T10:08:45;102471.94;;;6.25;47.19
56420;BME280;42323;52.170;7.538;2023-03-01T10:11:22;102468.53;;;7.25;45.53
56420;BME280;42323;52.170;7.538;2023-03-01T10:16:38;102469.28;;;9.24;39.91
56420;BME280;42323;52.170;7.538;2023-03-01T10:19:12;102461.19;;;10.02;38.21
56420;BME280;42323;52.170;7.538;2023-03-01T10:21:47;102468.44;;;10.92;36.59
56420;BME280;42323;52.170;7.538;2023-03-01T10:24:17;102452.56;;;11.63;33.13
56420;BME280;42323;52.170;7.538;2023-03-01T10:26:58;102449.16;;;11.92;32.86
56420;BME280;42323;52.170;7.538;2023-03-01T10:29:34;102444.66;;;12.21;31.98
56420;BME280;42323;52.170;7.538;2023-03-01T10:32:04;102448.41;;;12.66;30.86
56420;BME280;42323;52.170;7.538;2023-03-01T10:34:35;102437.16;;;13.01;30.66
56420;BME280;42323;52.170;7.538;2023-03-01T10:37:16;102417.41;;;13.15;30.57
56420;BME280;42323;52.170;7.538;2023-03-01T10:40:08;102417.38;;;13.42;30.22
56420;BME280;42323;52.170;7.538;2023-03-01T10:42:39;102416.69;;;13.76;29.67
56420;BME280;42323;52.170;7.538;2023-03-01T10:50:39;102416.94;;;14.35;28.30
56420;BME280;42323;52.170;7.538;2023-03-01T10:53:26;102424.97;;;14.59;28.03
56420;BME280;42323;52.170;7.538;2023-03-01T10:56:10;102427.78;;;15.00;27.00
56420;BME280;42323;52.170;7.538;2023-03-01T10:58:40;102417.91;;;15.10;26.59
56420;BME280;42323;52.170;7.538;2023-03-01T11:03:43;102420.19;;;14.97;26.57
56420;BME280;42323;52.170;7.538;2023-03-01T11:08:40;102415.69;;;14.89;26.91
56420;BME280;42323;52.170;7.538;2023-03-01T11:13:59;102430.94;;;15.03;26.35
56420;BME280;42323;52.170;7.538;2023-03-01T11:16:33;102427.38;;;15.37;26.45
56420;BME280;42323;52.170;7.538;2023-03-01T11:21:39;102439.94;;;16.09;25.02
56420;BME280;42323;52.170;7.538;2023-03-01T11:24:11;102432.66;;;16.19;25.42
56420;BME280;42323;52.170;7.538;2023-03-01T11:26:42;102424.84;;;16.42;24.92
56420;BME280;42323;52.170;7.538;2023-03-01T11:29:26;102410.28;;;16.85;24.28
56420;BME280;42323;52.170;7.538;2023-03-01T11:32:08;102428.28;;;16.98;23.61
56420;BME280;42323;52.170;7.538;2023-03-01T11:34:43;102419.66;;;16.96;23.29
56420;BME280;42323;52.170;7.538;2023-03-01T11:37:33;102418.97;;;17.02;23.08
56420;BME280;42323;52.170;7.538;2023-03-01T11:40:15;102411.22;;;17.23;22.93
56420;BME280;42323;52.170;7.538;2023-03-01T11:42:51;102402.00;;;17.19;23.41
56420;BME280;42323;52.170;7.538;2023-03-01T11:45:22;102392.31;;;17.49;23.22
56420;BME280;42323;52.170;7.538;2023-03-01T11:48:30;102397.59;;;18.25;22.15
56420;BME280;42323;52.170;7.538;2023-03-01T11:51:24;102387.75;;;18.55;21.81
56420;BME280;42323;52.170;7.538;2023-03-01T11:56:30;102367.69;;;19.03;20.97
56420;BME280;42323;52.170;7.538;2023-03-01T12:05:23;102365.81;;;19.40;20.96
56420;BME280;42323;52.170;7.538;2023-03-01T12:16:12;102348.78;;;19.35;20.53
56420;BME280;42323;52.170;7.538;2023-03-01T12:21:42;102333.72;;;18.77;20.74
56420;BME280;42323;52.170;7.538;2023-03-01T12:24:23;102348.47;;;19.23;20.79
56420;BME280;42323;52.170;7.538;2023-03-01T12:29:26;102342.09;;;19.67;19.46
56420;BME280;42323;52.170;7.538;2023-03-01T12:32:15;102346.72;;;19.58;19.49
56420;BME280;42323;52.170;7.538;2023-03-01T12:37:31;102335.63;;;19.54;19.78
56420;BME280;42323;52.170;7.538;2023-03-01T12:45:39;102319.22;;;19.72;18.89
56420;BME280;42323;52.170;7.538;2023-03-01T12:50:57;102326.91;;;19.89;18.72
56420;BME280;42323;52.170;7.538;2023-03-01T12:53:27;102316.75;;;20.05;18.51
56420;BME280;42323;52.170;7.538;2023-03-01T12:56:07;102310.13;;;20.29;18.90
56420;BME280;42323;52.170;7.538;2023-03-01T12:58:51;102306.50;;;20.50;18.43
56420;BME280;42323;52.170;7.538;2023-03-01T13:09:18;102306.00;;;21.15;17.75
56420;BME280;42323;52.170;7.538;2023-03-01T13:11:46;102296.97;;;21.49;17.75
56420;BME280;42323;52.170;7.538;2023-03-01T13:16:51;102279.75;;;21.45;16.98
56420;BME280;42323;52.170;7.538;2023-03-01T13:19:24;102279.31;;;21.15;17.30
56420;BME280;42323;52.170;7.538;2023-03-01T13:21:53;102277.91;;;21.32;18.12
56420;BME280;42323;52.170;7.538;2023-03-01T13:24:41;102275.25;;;21.39;17.56
56420;BME280;42323;52.170;7.538;2023-03-01T13:27:21;102273.41;;;21.39;17.70
56420;BME280;42323;52.170;7.538;2023-03-01T13:29:57;102248.78;;;21.37;17.85
56420;BME280;42323;52.170;7.538;2023-03-01T13:32:33;102252.19;;;21.77;17.37
56420;BME280;42323;52.170;7.538;2023-03-01T13:37:45;102251.94;;;21.79;17.93
56420;BME280;42323;52.170;7.538;2023-03-01T13:42:49;102248.50;;;21.72;17.91
56420;BME280;42323;52.170;7.538;2023-03-01T13:45:40;102248.28;;;21.67;17.38
56420;BME280;42323;52.170;7.538;2023-03-01T13:48:09;102243.13;;;21.78;17.53
56420;BME280;42323;52.170;7.538;2023-03-01T13:50:38;102248.78;;;22.02;17.42
56420;BME280;42323;52.170;7.538;2023-03-01T13:53:10;102238.50;;;22.05;17.25
56420;BME280;42323;52.170;7.538;2023-03-01T13:55:43;102233.78;;;22.08;17.61
56420;BME280;42323;52.170;7.538;2023-03-01T13:58:24;102229.97;;;21.84;17.64
56420;BME280;42323;52.170;7.538;2023-03-01T14:01:04;102235.94;;;21.79;17.82
56420;BME280;42323;52.170;7.538;2023-03-01T14:10:23;102225.00;;;22.39;17.89
56420;BME280;42323;52.170;7.538;2023-03-01T14:18:34;102220.78;;;22.24;16.93
56420;BME280;42323;52.170;7.538;2023-03-01T14:21:06;102214.63;;;21.66;17.53
56420;BME280;42323;52.170;7.538;2023-03-01T14:23:33;102213.22;;;21.63;18.16
56420;BME280;42323;52.170;7.538;2023-03-01T14:26:01;102198.41;;;21.74;17.84
56420;BME280;42323;52.170;7.538;2023-03-01T14:28:28;102201.25;;;21.79;17.48
56420;BME280;42323;52.170;7.538;2023-03-01T14:30:57;102196.00;;;21.52;17.55
56420;BME280;42323;52.170;7.538;2023-03-01T14:33:31;102196.91;;;21.13;17.88
56420;BME280;42323;52.170;7.538;2023-03-01T14:36:03;102193.19;;;21.14;18.58
56420;BME280;42323;52.170;7.538;2023-03-01T14:40:57;102188.91;;;21.00;17.88
56420;BME280;42323;52.170;7.538;2023-03-01T14:43:24;102190.97;;;20.85;17.73
56420;BME280;42323;52.170;7.538;2023-03-01T14:45:54;102179.91;;;20.61;18.75
56420;BME280;42323;52.170;7.538;2023-03-01T14:48:20;102173.13;;;20.72;18.23
56420;BME280;42323;52.170;7.538;2023-03-01T14:50:47;102179.09;;;20.61;18.13
56420;BME280;42323;52.170;7.538;2023-03-01T14:53:20;102166.53;;;20.41;18.24
56420;BME280;42323;52.170;7.538;2023-03-01T14:55:51;102163.31;;;20.52;17.93
56420;BME280;42323;52.170;7.538;2023-03-01T14:58:19;102159.19;;;20.43;18.30
56420;BME280;42323;52.170;7.538;2023-03-01T15:00:56;102161.06;;;20.56;18.23
56420;BME280;42323;52.170;7.538;2023-03-01T15:03:35;102149.75;;;20.41;17.90
56420;BME280;42323;52.170;7.538;2023-03-01T15:06:05;102160.03;;;20.50;18.56
56420;BME280;42323;52.170;7.538;2023-03-01T15:08:32;102159.19;;;20.76;18.43
56420;BME280;42323;52.170;7.538;2023-03-01T15:11:02;102156.50;;;21.10;18.59
56420;BME280;42323;52.170;7.538;2023-03-01T15:13:33;102159.91;;;21.50;18.40
56420;BME280;42323;52.170;7.538;2023-03-01T15:16:21;102159.03;;;21.63;17.41
56420;BME280;42323;52.170;7.538;2023-03-01T15:18:53;102160.16;;;21.15;17.70
56420;BME280;42323;52.170;7.538;2023-03-01T15:21:21;102156.13;;;20.99;17.90
56420;BME280;42323;52.170;7.538;2023-03-01T15:23:54;102159.41;;;20.75;17.74
56420;BME280;42323;52.170;7.538;2023-03-01T15:26:22;102161.25;;;20.68;18.17
56420;BME280;42323;52.170;7.538;2023-03-01T15:28:49;102156.72;;;20.42;18.47
56420;BME280;42323;52.170;7.538;2023-03-01T15:31:18;102146.09;;;20.48;19.14
56420;BME280;42323;52.170;7.538;2023-03-01T15:33:46;102155.50;;;20.44;18.80
56420;BME280;42323;52.170;7.538;2023-03-01T15:39:01;102156.81;;;19.94;19.72
56420;BME280;42323;52.170;7.538;2023-03-01T15:41:31;102162.41;;;19.58;19.88
56420;BME280;42323;52.170;7.538;2023-03-01T15:44:00;102154.69;;;19.28;20.64
56420;BME280;42323;52.170;7.538;2023-03-01T15:46:32;102160.00;;;19.28;20.32
56420;BME280;42323;52.170;7.538;2023-03-01T15:49:06;102153.63;;;19.22;21.08
56420;BME280;42323;52.170;7.538;2023-03-01T15:51:45;102155.94;;;19.32;20.95
56420;BME280;42323;52.170;7.538;2023-03-01T15:54:19;102150.78;;;19.24;20.76
56420;BME280;42323;52.170;7.538;2023-03-01T15:56:46;102131.75;;;19.20;20.88
56420;BME280;42323;52.170;7.538;2023-03-01T15:59:13;102134.47;;;18.99;20.91
56420;BME280;42323;52.170;7.538;2023-03-01T16:01:41;102140.34;;;18.88;21.75
56420;BME280;42323;52.170;7.538;2023-03-01T16:04:11;102135.50;;;18.70;21.88
56420;BME280;42323;52.170;7.538;2023-03-01T16:06:50;102130.31;;;17.97;22.16
56420;BME280;42323;52.170;7.538;2023-03-01T16:09:23;102137.97;;;15.82;24.68
56420;BME280;42323;52.170;7.538;2023-03-01T16:11:51;102135.19;;;13.97;27.38
56420;BME280;42323;52.170;7.538;2023-03-01T16:14:18;102139.13;;;12.73;29.66
56420;BME280;42323;52.170;7.538;2023-03-01T16:16:45;102143.53;;;11.83;31.10
56420;BME280;42323;52.170;7.538;2023-03-01T16:19:12;102142.66;;;11.08;31.84
56420;BME280;42323;52.170;7.538;2023-03-01T16:21:38;102137.22;;;10.43;33.07
56420;BME280;42323;52.170;7.538;2023-03-01T16:24:05;102109.97;;;9.76;34.72
56420;BME280;42323;52.170;7.538;2023-03-01T16:26:32;102132.16;;;9.42;35.36
56420;BME280;42323;52.170;7.538;2023-03-01T16:28:59;102147.16;;;9.19;37.31
56420;BME280;42323;52.170;7.538;2023-03-01T16:31:25;102145.66;;;8.95;37.24
56420;BME280;42323;52.170;7.538;2023-03-01T16:33:54;102137.59;;;8.66;37.35
56420;BME280;42323;52.170;7.538;2023-03-01T16:36:23;102140.16;;;8.45;38.01
56420;BME280;42323;52.170;7.538;2023-03-01T16:38:52;102150.22;;;8.18;39.27
56420;BME280;42323;52.170;7.538;2023-03-01T16:41:21;102143.13;;;7.97;39.77
56420;BME280;42323;52.170;7.538;2023-03-01T16:43:48;102132.72;;;7.75;39.23
56420;BME280;42323;52.170;7.538;2023-03-01T16:46:25;102137.00;;;7.53;39.22
56420;BME280;42323;52.170;7.538;2023-03-01T16:48:55;102138.19;;;7.27;39.64
56420;BME280;42323;52.170;7.538;2023-03-01T16:51:23;102134.59;;;7.06;40.39
56420;BME280;42323;52.170;7.538;2023-03-01T16:53:50;102144.13;;;6.83;41.20
56420;BME280;42323;52.170;7.538;2023-03-01T16:56:18;102146.56;;;6.73;41.04
56420;BME280;42323;52.170;7.538;2023-03-01T16:58:45;102140.84;;;6.57;40.83
56420;BME280;42323;52.170;7.538;2023-03-01T17:01:15;102143.78;;;6.52;41.38
56420;BME280;42323;52.170;7.538;2023-03-01T17:03:43;102135.84;;;6.29;42.61
56420;BME280;42323;52.170;7.538;2023-03-01T17:06:16;102135.91;;;6.17;42.99
56420;BME280;42323;52.170;7.538;2023-03-01T17:08:43;102139.63;;;5.89;43.43
56420;BME280;42323;52.170;7.538;2023-03-01T17:11:14;102139.84;;;5.73;43.72
56420;BME280;42323;52.170;7.538;2023-03-01T17:13:42;102144.88;;;5.50;44.49
56420;BME280;42323;52.170;7.538;2023-03-01T17:16:12;102145.72;;;5.38;44.70
56420;BME280;42323;52.170;7.538;2023-03-01T17:18:38;102137.28;;;5.22;45.25
56420;BME280;42323;52.170;7.538;2023-03-01T17:21:06;102139.03;;;5.09;45.35
56420;BME280;42323;52.170;7.538;2023-03-01T17:23:34;102162.66;;;5.06;45.93
56420;BME280;42323;52.170;7.538;2023-03-01T17:26:01;102158.91;;;4.97;46.30
56420;BME280;42323;52.170;7.538;2023-03-01T17:28:29;102159.25;;;4.78;46.87
56420;BME280;42323;52.170;7.538;2023-03-01T17:30:58;102158.81;;;4.59;46.96
56420;BME280;42323;52.170;7.538;2023-03-01T17:33:25;102161.25;;;4.47;47.29
56420;BME280;42323;52.170;7.538;2023-03-01T17:35:52;102174.97;;;4.49;48.10
56420;BME280;42323;52.170;7.538;2023-03-01T17:38:18;102175.53;;;4.40;48.33
56420;BME280;42323;52.170;7.538;2023-03-01T17:40:45;102177.81;;;4.18;48.25
56420;BME280;42323;52.170;7.538;2023-03-01T17:43:13;102169.13;;;4.05;49.13
56420;BME280;42323;52.170;7.538;2023-03-01T17:45:41;102170.78;;;4.06;49.51
56420;BME280;42323;52.170;7.538;2023-03-01T17:48:10;102169.72;;;3.95;49.71
56420;BME280;42323;52.170;7.538;2023-03-01T17:50:37;102189.72;;;3.93;49.37
56420;BME280;42323;52.170;7.538;2023-03-01T17:53:06;102171.84;;;3.74;49.34
56420;BME280;42323;52.170;7.538;2023-03-01T17:55:36;102189.44;;;3.69;50.36
56420;BME280;42323;52.170;7.538;2023-03-01T17:58:04;102182.13;;;3.62;49.48
56420;BME280;42323;52.170;7.538;2023-03-01T18:00:31;102185.75;;;3.59;50.34
56420;BME280;42323;52.170;7.538;2023-03-01T18:02:58;102173.97;;;3.53;49.88
56420;BME280;42323;52.170;7.538;2023-03-01T18:05:25;102186.47;;;3.47;50.44
56420;BME280;42323;52.170;7.538;2023-03-01T18:07:52;102175.91;;;3.36;50.54
56420;BME280;42323;52.170;7.538;2023-03-01T18:10:19;102183.88;;;3.33;51.24
56420;BME280;42323;52.170;7.538;2023-03-01T18:12:46;102181.63;;;3.26;51.10
56420;BME280;42323;52.170;7.538;2023-03-01T18:15:12;102180.41;;;3.18;51.50
56420;BME280;42323;52.170;7.538;2023-03-01T18:17:39;102190.94;;;3.15;51.98